1VA0 weather

Sabot Airport
Sabot, Virginia, United States

Public forecast

Using degrees Fahrenheit for public forecast. Weather courtesy of forecast.io.

METAR (pilot weather report)

Closest report is Hanover County Municipal Airport, 15.5 nm (28.8 km) ENE. Retrieved 2019/01/17 07:54 UTC (49 minutes ago):

KOFP 170754Z AUTO 00000KT 7SM OVC042 00/M01 A3034 RMK AO2 SLP277 T00001011

TAF (pilot weather forecast)

Closest forecast is Richmond International Airport, 21.7 nm (40.2 km) ESE. Retrieved 2019/01/17 06:22 UTC (2 hours ago):

TAF KRIC 170520Z 1706/1806 00000KT P6SM SCT050 FM171400 05004KT P6SM BKN080 FM172200 13004KT P6SM OVC060 FM180200 16004KT 6SM -RA OVC060 FM180500 17005KT 6SM -RA OVC030